Tiempo atmosférico en la estación meteorológica de Oroz-Betelu/Orotz-Betelu, Navarra (635 m.)



Fecha
DESCASC
Temp. máxima en grados centígrados (hora)
DESCASC
Temp. mínima en grados centígrados (hora)
DESCASC
Temp. media en grados centígrados
DESCASC
Racha de viento máxima en m/sg (hora)
DESCASC
Velocidad máxima media en intervalos de 10 minutos(hora)
DESCASC
Precipitaciones diarias en mm
DESCASC
Precipitaciones de 00:00 a 06:00 en mm
DESCASC
Precipitaciones de 06:00 a 12:00 en mm
DESCASC
Precipitaciones de 12:00 a 18:00 en mm
DESCASC
Precipitaciones de 18:00 a 24:00 en mm
DESCASC
13-06-2019 25.1 (17:00) 4 (06:40) 14.6 13.89 (19:20) 7.78 (19:20) 0 0 0 0 0
12-06-2019 19.7 (17:30) 2 (06:40) 10.9 9.72 (20:10) 8.33 (20:20) 0 0 0 0 0
11-06-2019 12.7 (18:30) 6 (23:30) 9.3 12.5 (12:20) 6.67 (15:40) 1.2 0.2 0 1 0
10-06-2019 14.1 (15:00) 9.5 (23:40) 11.8 13.06 (12:40) 7.78 (01:30) 0 0 0 0 0
09-06-2019 24.2 (15:00) 9.2 (00:00) 16.7 11.39 (18:50) 8.06 (18:10) 0 0 0 0 0
08-06-2019 22.3 (15:20) 4.1 (00:00) 13.2 8.61 (16:50) 6.39 (16:50) 0 0 0 0 0
07-06-2019 18.6 (15:50) 8.4 (00:00) 13.5 20 (01:10) 9.72 (00:20) 8 6.6 1.4 0 0
06-06-2019 21.3 (19:20) 6 (00:00) 13.6 20 (16:40) 11.11 (23:40) 0 0 0 0 0
05-06-2019 13.6 (16:30) 6.7 (00:00) 10.2 9.72 (08:20) 5.83 (06:50) 33.8 5.6 27.8 0.4 0
04-06-2019 28.7 (15:20) 9.3 (00:00) 19 16.11 (17:20) 9.17 (17:10) 8.6 0 0 3.8 4.8
03-06-2019 29.3 (18:40) 12.2 (00:00) 20.7 8.89 (13:50) 6.11 (15:30) 0 0 0 0 0
02-06-2019 30.4 (17:20) 8.6 (00:00) 19.5 8.89 (13:20) 6.11 (12:30) 0 0 0 0 0
01-06-2019 28.9 (18:30) 8.2 (00:00) 18.5 10 (14:00) 6.94 (14:20) 0 0 0 0 0
31-05-2019 27.2 (16:30) 7.7 (00:00) 17.5 7.78 (02:30) 5.83 (02:30) 0 0 0 0 0
30-05-2019 21.8 (15:30) 4.9 (00:00) 13.3 11.39 (19:00) 8.61 (16:20) 0 0 0 0 0
29-05-2019 15 (15:10) 7.4 (00:00) 11.2 14.17 (19:00) 8.06 (17:10) 1.8 1.6 0.2 0 0
28-05-2019 12 (13:10) 8.5 (00:00) 10.3 11.67 (15:30) 5.28 (16:00) 1.8 0 0.4 0.6 0.8
27-05-2019 16.1 (13:10) 10.6 (00:00) 13.4 9.72 (13:00) 6.94 (12:50) 0.2 0 0 0 0.2
26-05-2019 15.3 (17:40) 9 (00:00) 12.2 13.06 (14:40) 6.67 (16:10) 0 0 0 0 0
25-05-2019 14.2 (16:00) 10.2 (00:00) 12.2 12.22 (15:50) 6.67 (16:00) 0.2 0 0 0 0.2
24-05-2019 13 (12:00) 10.4 (00:00) 11.7 11.39 (21:10) 5.56 (21:20) 11.6 10.4 1.2 0 0
23-05-2019 24.7 (16:00) 5.4 (00:00) 15.1 9.44 (22:00) 6.11 (22:00) 0.6 0 0 0 0.6
22-05-2019 22.2 (14:00) 9.6 (00:00) 15.9 11.94 (01:30) 6.39 (01:30) 0 0 0 0 0
21-05-2019 15.8 (15:20) 8.2 (03:50) 12 12.5 (18:10) 7.78 (18:20) 0 0 0 0 0
20-05-2019 14.8 (16:50) 6.3 (07:00) 10.6 10.28 (20:10) 5.83 (19:20) 0 0 0 0 0
19-05-2019 10.8 (15:30) 4.4 (00:00) 7.6 7.22 (13:10) 3.89 (13:10) 28.8 19 4.6 3.6 1.6
18-05-2019 10.6 (17:30) 4.7 (00:00) 7.7 8.06 (17:30) 4.72 (15:00) 8.4 0.2 0.2 0 8
17-05-2019 10.9 (00:20) 6.7 (00:00) 8.8 8.33 (01:30) 4.17 (18:00) 35.6 16.6 11.8 4.8 2.4

Gráficas

Temp. máximas Temp. mínimas Temp. medias Precipitaciones Rachas de viento máximas Velocidades máximas media en intervalos de 10 minutos

Datos horarios

Fecha y hora oficial Temperatura (ºC) Velocidad del viento (km/h) Dirección del viento Racha (km/h) Dirección de racha Precipitación (mm) Presión (hPa) Tendencia (hPa) Humedad (%)
2019-06-15 23:00:00 13.1 13 Nordeste 40 Este 0 -- -- 75
2019-06-15 22:00:00 13.5 19 Nordeste 36 Nordeste 0 -- -- 73
2019-06-15 21:00:00 14.4 26 Nordeste 46 Nordeste 0 -- -- 69
2019-06-15 20:00:00 15.5 26 Nordeste 44 Nordeste 0 -- -- 65
2019-06-15 19:00:00 16.5 20 Nordeste 36 Nordeste 0 -- -- 61
2019-06-15 18:00:00 16.8 23 Nordeste 36 Nordeste 0 -- -- 59
2019-06-15 17:00:00 17.1 23 Nordeste 37 Nordeste 0 -- -- 58
2019-06-15 16:00:00 16.5 23 Nordeste 33 Nordeste 0 -- -- 61
2019-06-15 15:00:00 17.7 16 Nordeste 36 Nordeste 0 -- -- 61
2019-06-15 14:00:00 17.3 15 Nordeste 24 Este 0 -- -- 64
2019-06-15 13:00:00 16.4 13 Este 28 Nordeste 0 -- -- 67
2019-06-15 12:00:00 15.4 14 Nordeste 26 Nordeste 0 -- -- 70
2019-06-15 11:00:00 14.9 16 Nordeste 26 Nordeste 0 -- -- 68
2019-06-15 10:00:00 13.2 15 Nordeste 23 Nordeste 0 -- -- 75
2019-06-15 09:00:00 11.5 12 Nordeste 23 Nordeste 0 -- -- 82
2019-06-15 08:00:00 11.3 13 Nordeste 22 Nordeste 0 -- -- 82
2019-06-15 07:00:00 11.7 12 Nordeste 22 Este 0 -- -- 82
2019-06-15 06:00:00 12 8 Nordeste 26 Nordeste 0 -- -- 80
2019-06-15 05:00:00 12 11 Nordeste 23 Nordeste 0 -- -- 80
2019-06-15 04:00:00 12.4 13 Nordeste 25 Nordeste 0 -- -- 81
2019-06-15 03:00:00 12.8 7 Nordeste 23 Nordeste 0 -- -- 80
2019-06-15 02:00:00 12.9 12 Nordeste 31 Nordeste 0 -- -- 80
2019-06-15 01:00:00 13 13 Nordeste 36 Nordeste 0 -- -- 81
2019-06-15 00:00:00 13.5 13 Nordeste 30 Nordeste 0 -- -- 79
2019-06-14 23:00:00 13.7 15 Nordeste 32 Nordeste 0 -- -- 80
2019-06-14 22:00:00 13.8 21 Nordeste 39 Nordeste 0 -- -- 81
2019-06-14 21:00:00 14.6 18 Nordeste 33 Nordeste 0 -- -- 78
2019-06-14 20:00:00 15.7 19 Nordeste 45 Nordeste 0 -- -- 78
2019-06-14 19:00:00 18.5 27 Nordeste 37 Nordeste 0 -- -- 70
2019-06-14 18:00:00 23.9 11 Nordeste 16 Sur 0 -- -- 54
2019-06-14 17:00:00 24.3 7 Noroeste 17 Sudoeste 0 -- -- 52
2019-06-14 16:00:00 24.1 9 Oeste 22 Sudoeste 0 -- -- 51
2019-06-14 15:00:00 21.9 7 Oeste 21 Sudoeste 0 -- -- 59
2019-06-14 14:00:00 20.4 9 Sudoeste 17 Oeste 0 -- -- 58
2019-06-14 13:00:00 19.7 2 Sudeste 6 Oeste 0 -- -- 61
2019-06-14 12:00:00 17.7 2 Sudeste 9 Este 0 -- -- 66
2019-06-14 11:00:00 16.8 5 Nordeste 19 Nordeste 0 -- -- 67
2019-06-14 10:00:00 14.1 15 Nordeste 30 Nordeste 0 -- -- 77
2019-06-14 09:00:00 12.5 15 Nordeste 26 Nordeste 0 -- -- 80
2019-06-14 08:00:00 11.3 16 Nordeste 28 Nordeste 0 -- -- 84
2019-06-14 07:00:00 11.1 13 Nordeste 31 Nordeste 0 -- -- 84
2019-06-14 06:00:00 11.2 15 Nordeste 25 Nordeste 0 -- -- 85
2019-06-14 05:00:00 11.5 10 Nordeste 27 Nordeste 0 -- -- 86
2019-06-14 04:00:00 11.9 14 Nordeste 22 Nordeste 0 -- -- 86
2019-06-14 03:00:00 12.1 13 Nordeste 22 Nordeste 0 -- -- 86
2019-06-14 02:00:00 12.2 6 Este 20 Nordeste 0 -- -- 86
2019-06-14 01:00:00 12.5 6 Este 25 Este 0 -- -- 86
2019-06-14 00:00:00 13.4 11 Nordeste 24 Nordeste 0 -- -- 86
2019-06-13 23:00:00 14.1 13 Nordeste 30 Nordeste 0 -- -- 84
2019-06-13 22:00:00 16 23 Nordeste 36 Nordeste 0 -- -- 78
2019-06-13 21:00:00 18.6 14 Este 48 Noroeste 0 -- -- 65
2019-06-13 20:00:00 23 15 Oeste 50 Sudoeste 0 -- -- 43
2019-06-13 19:00:00 24.3 19 Sudoeste 42 Sudoeste 0 -- -- 39
2019-06-13 18:00:00 23.9 15 Sudoeste 48 Sudoeste 0 -- -- 42
2019-06-13 17:00:00 25.1 12 Sudoeste 45 Sudoeste 0 -- -- 38
2019-06-13 16:00:00 24.1 15 Sudoeste 42 Sudoeste 0 -- -- 41
2019-06-13 15:00:00 22.1 20 Sudoeste 48 Sudoeste 0 -- -- 44
2019-06-13 14:00:00 21.5 17 Oeste 41 Sur 0 -- -- 48
2019-06-13 13:00:00 19.8 16 Noroeste 45 Sur 0 -- -- 55
2019-06-13 12:00:00 17.6 20 Sudoeste 31 Sudoeste 0 -- -- 55
2019-06-13 11:00:00 17.7 15 Sudoeste 36 Sudoeste 0 -- -- 50
2019-06-13 10:00:00 14.7 10 Sudoeste 17 Oeste 0 -- -- 56
2019-06-13 09:00:00 11.9 2 Sudeste 6 Sur 0 -- -- 81
2019-06-13 08:00:00 6.1 0 Calma 5 Este 0 -- -- 99
2019-06-13 07:00:00 4.3 0 Calma 4 Sudoeste 0 -- -- 97
2019-06-13 06:00:00 4.3 0 Calma 4 Nordeste 0 -- -- 96
2019-06-13 05:00:00 4.6 0 Calma 4 Sudoeste 0 -- -- 95
2019-06-13 04:00:00 5.5 0 Calma 2 Sudoeste 0 -- -- 93
2019-06-13 03:00:00 6.6 0 Calma 6 Oeste 0 -- -- 91
2019-06-13 02:00:00 8.1 3 Oeste 8 Norte 0 -- -- 88
2019-06-13 01:00:00 9.9 4 Este 17 Nordeste 0 -- -- 84
2019-06-13 00:00:00 10.6 11 Nordeste 26 Nordeste 0 -- -- 81
2019-06-12 23:00:00 10.8 11 Nordeste 28 Nordeste 0 -- -- 80
2019-06-12 22:00:00 11.1 13 Nordeste 32 Nordeste 0 -- -- 78
2019-06-12 21:00:00 12.7 22 Nordeste 35 Nordeste 0 -- -- 73
2019-06-12 20:00:00 14.9 25 Nordeste 33 Nordeste 0 -- -- 64
2019-06-12 19:00:00 17.3 8 Este 26 Nordeste 0 -- -- 48
2019-06-12 18:00:00 18.8 3 Sudoeste 24 Sudoeste 0 -- -- 35
2019-06-12 17:00:00 19 12 Oeste 26 Oeste 0 -- -- 38
2019-06-12 16:00:00 18.2 14 Oeste 30 Sudoeste 0 -- -- 36
2019-06-12 15:00:00 17.8 17 Oeste 31 Sudoeste 0 -- -- 41
2019-06-12 14:00:00 16.6 12 Sudoeste 23 Oeste 0 -- -- 42
2019-06-12 13:00:00 14.7 11 Sudoeste 32 Oeste 0 -- -- 46
2019-06-12 12:00:00 14.1 14 Sudoeste 27 Sudoeste 0 -- -- 48
2019-06-12 11:00:00 13.2 13 Sur 22 Sur 0 -- -- 55
2019-06-12 10:00:00 11.3 7 Sudeste 14 Este 0 -- -- 63
2019-06-12 09:00:00 7.9 0 Calma 6 Este 0 -- -- 88
2019-06-12 08:00:00 3.4 0 Calma 3 Nordeste 0 -- -- 100
2019-06-12 07:00:00 2 2 Nordeste 4 Nordeste 0 -- -- 97
2019-06-12 06:00:00 2.6 0 Calma 6 Este 0 -- -- 97
2019-06-12 05:00:00 2.8 2 Nordeste 9 Noroeste 0 -- -- 96
2019-06-12 04:00:00 2.9 0 Calma 6 Este 0 -- -- 97
2019-06-12 03:00:00 3.6 4 Este 8 Norte 0 -- -- 96
2019-06-12 02:00:00 3.9 2 Este 6 Sudeste 0 -- -- 94
2019-06-12 01:00:00 5.2 3 Este 6 Norte 0 -- -- 94
2019-06-12 00:00:00 6.1 2 Sudeste 6 Sudeste 0 -- -- 93
2019-06-11 23:00:00 6.7 0 Calma 5 Norte 0 -- -- 88
2019-06-11 22:00:00 8.5 3 Norte 15 Nordeste 0 -- -- 81
2019-06-11 21:00:00 9.3 12 Nordeste 18 Este 0 -- -- 76
2019-06-11 20:00:00 9.9 3 Este 25 Norte 0 -- -- 78
2019-06-11 19:00:00 11.6 10 Norte 32 Norte 0 -- -- 67
2019-06-11 18:00:00 11.8 14 Nordeste 23 Nordeste 0 -- -- 66
2019-06-11 17:00:00 11.3 15 Nordeste 27 Nordeste 0 -- -- 71
2019-06-11 16:00:00 10.3 4 Oeste 41 Nordeste 0 -- -- 77
2019-06-11 15:00:00 11.1 16 Nordeste 37 Nordeste 0 -- -- 67
2019-06-11 14:00:00 10.6 7 Este 31 Norte 0.2 -- -- 77
2019-06-11 13:00:00 8.7 9 Este 45 Nordeste 0.8 -- -- 91
2019-06-11 12:00:00 11 11 Nordeste 23 Norte 0 -- -- 70
2019-06-11 11:00:00 10.1 10 Nordeste 21 Nordeste 0 -- -- 72
2019-06-11 10:00:00 10.5 14 Este 23 Este 0 -- -- 72
2019-06-11 09:00:00 8.9 4 Sudeste 16 Noroeste 0 -- -- 83
2019-06-11 08:00:00 8 0 Calma 4 Oeste 0 -- -- 93
2019-06-11 07:00:00 7.5 0 Calma 4 Noroeste 0 -- -- 93
2019-06-11 06:00:00 7.5 3 Oeste 8 Norte 0 -- -- 92
2019-06-11 05:00:00 7.6 0 Calma 7 Nordeste 0.2 -- -- 91
2019-06-11 04:00:00 8.1 4 Este 12 Sudeste 0 -- -- 82
2019-06-11 03:00:00 8.7 4 Nordeste 15 Norte 0 -- -- 76
2019-06-11 02:00:00 9.2 5 Nordeste 17 Nordeste 0 -- -- 73
2019-06-11 01:00:00 9.4 8 Nordeste 21 Nordeste 0 -- -- 74
2019-06-11 00:00:00 9.6 15 Nordeste 36 Nordeste 0 -- -- 69
2019-06-10 23:00:00 9.7 26 Nordeste 37 Nordeste 0 -- -- 67
2019-06-10 22:00:00 10.5 27 Este 45 Este 0 -- -- 62
2019-06-10 21:00:00 10.9 19 Nordeste 35 Nordeste 0 -- -- 69
2019-06-10 20:00:00 11.1 18 Nordeste 29 Nordeste 0 -- -- 72
2019-06-10 19:00:00 11.2 11 Nordeste 31 Nordeste 0 -- -- 73
2019-06-10 18:00:00 11.6 16 Nordeste 28 Nordeste 0 -- -- 73
2019-06-10 17:00:00 11.9 11 Nordeste 29 Nordeste 0 -- -- 73
2019-06-10 16:00:00 11.8 12 Nordeste 32 Nordeste 0 -- -- 75
2019-06-10 15:00:00 14.1 18 Nordeste 35 Norte 0 -- -- 64
2019-06-10 14:00:00 13 20 Nordeste 32 Nordeste 0 -- -- 68
2019-06-10 13:00:00 12.8 23 Nordeste 47 Nordeste 0 -- -- 73
2019-06-10 12:00:00 13.3 21 Nordeste 45 Nordeste 0 -- -- 69
2019-06-10 11:00:00 11.9 18 Nordeste 39 Norte 0 -- -- 72
2019-06-10 10:00:00 11.2 17 Nordeste 32 Nordeste 0 -- -- 77
2019-06-10 09:00:00 10.4 11 Nordeste 25 Este 0 -- -- 81
2019-06-10 08:00:00 10.2 18 Este 38 Este 0 -- -- 79
2019-06-10 07:00:00 10.1 16 Nordeste 28 Nordeste 0 -- -- 81
2019-06-10 06:00:00 10.5 14 Nordeste 35 Norte 0 -- -- 80
2019-06-10 05:00:00 10.8 9 Nordeste 24 Nordeste 0 -- -- 81
2019-06-10 04:00:00 10.8 11 Nordeste 28 Norte 0 -- -- 82
2019-06-10 03:00:00 10.9 14 Norte 32 Norte 0 -- -- 84
2019-06-10 02:00:00 11.2 15 Nordeste 42 Nordeste 0 -- -- 84
2019-06-10 01:00:00 11.6 14 Nordeste 29 Nordeste 0 -- -- 84
2019-06-10 00:00:00 11.9 16 Nordeste 36 Nordeste 0 -- -- 84
2019-06-09 23:00:00 12.3 15 Nordeste 37 Nordeste 0 -- -- 84
2019-06-09 22:00:00 12.4 12 Este 35 Nordeste 0 -- -- 85
2019-06-09 21:00:00 12.9 19 Nordeste 36 Nordeste 0 -- -- 83
2019-06-09 20:00:00 13.7 16 Nordeste 34 Nordeste 0 -- -- 83
2019-06-09 19:00:00 14.8 26 Nordeste 41 Nordeste 0 -- -- 78
2019-06-09 18:00:00 17.1 26 Nordeste 39 Nordeste 0 -- -- 73
2019-06-09 17:00:00 19 24 Nordeste 36 Nordeste 0 -- -- 69
2019-06-09 16:00:00 19.9 21 Nordeste 34 Nordeste 0 -- -- 64
2019-06-09 15:00:00 24.2 7 Oeste 29 Sudoeste 0 -- -- 41
2019-06-09 14:00:00 22.9 22 Sudoeste 38 Sudoeste 0 -- -- 41
2019-06-09 13:00:00 21.9 22 Oeste 32 Sudoeste 0 -- -- 45
2019-06-09 12:00:00 21.2 14 Oeste 26 Sudoeste 0 -- -- 47
2019-06-09 11:00:00 19.4 4 Sudeste 9 Sur 0 -- -- 55
2019-06-09 10:00:00 15.1 0 Calma 5 Sudeste 0 -- -- 80
2019-06-09 09:00:00 12.4 0 Calma 4 Sudeste 0 -- -- 90
2019-06-09 08:00:00 9.8 0 Calma 4 Este 0 -- -- 96
2019-06-09 07:00:00 9.2 0 Calma 6 Este 0 -- -- 95
2019-06-09 06:00:00 9.6 0 Calma 6 Este 0 -- -- 94
2019-06-09 05:00:00 9.9 0 Calma 5 Este 0 -- -- 93
2019-06-09 04:00:00 10.5 4 Este 6 Este 0 -- -- 91
2019-06-09 03:00:00 11.5 2 Sur 5 Este 0 -- -- 87
2019-06-09 02:00:00 12.5 3 Norte 9 Noroeste 0 -- -- 82
2019-06-09 01:00:00 13.6 3 Nordeste 16 Nordeste 0 -- -- 77
2019-06-09 00:00:00 14.4 8 Nordeste 24 Nordeste 0 -- -- 73
2019-06-08 23:00:00 15.1 16 Nordeste 30 Nordeste 0 -- -- 71
2019-06-08 22:00:00 15.5 18 Nordeste 26 Nordeste 0 -- -- 69
2019-06-08 21:00:00 16.1 16 Nordeste 30 Nordeste 0 -- -- 69
2019-06-08 20:00:00 16.7 19 Nordeste 29 Nordeste 0 -- -- 66
2019-06-08 19:00:00 17.4 19 Nordeste 29 Nordeste 0 -- -- 63
2019-06-08 18:00:00 18.4 17 Nordeste 30 Nordeste 0 -- -- 59
2019-06-08 17:00:00 19.6 22 Nordeste 31 Nordeste 0 -- -- 58
2019-06-08 16:00:00 21.9 13 Oeste 27 Sudoeste 0 -- -- 39
2019-06-08 15:00:00 21.7 13 Sudoeste 30 Sudoeste 0 -- -- 41
2019-06-08 14:00:00 21.1 14 Sudoeste 29 Oeste 0 -- -- 42
2019-06-08 13:00:00 19.7 17 Oeste 30 Oeste 0 -- -- 44
2019-06-08 12:00:00 18.8 4 Sudeste 12 Nordeste 0 -- -- 47
2019-06-08 11:00:00 15.6 10 Nordeste 22 Nordeste 0 -- -- 52
2019-06-08 10:00:00 13.4 11 Este 26 Nordeste 0 -- -- 62
2019-06-08 09:00:00 10.3 4 Sudeste 8 Sudeste 0 -- -- 69
2019-06-08 08:00:00 5.6 0 Calma 5 Sur 0 -- -- 90
2019-06-08 07:00:00 4.2 0 Calma 4 Sudeste 0 -- -- 90
2019-06-08 06:00:00 4.5 0 Calma 8 Oeste 0 -- -- 89
2019-06-08 05:00:00 5.2 3 Oeste 9 Sudoeste 0 -- -- 86
2019-06-08 04:00:00 7 3 Oeste 24 Nordeste 0 -- -- 77
2019-06-08 03:00:00 7.5 11 Nordeste 21 Este 0 -- -- 76
2019-06-08 02:00:00 6.9 3 Oeste 13 Norte 0 -- -- 84
2019-06-08 01:00:00 8.1 5 Nordeste 18 Este 0 -- -- 80
2019-06-08 00:00:00 8.4 8 Nordeste 17 Nordeste 0 -- -- 81
2019-06-07 23:00:00 9 9 Nordeste 31 Nordeste 0 -- -- 78
2019-06-07 22:00:00 9.9 8 Nordeste 37 Nordeste 0 -- -- 73
2019-06-07 21:00:00 11.2 20 Nordeste 36 Nordeste 0 -- -- 70
2019-06-07 20:00:00 13 18 Nordeste 37 Nordeste 0 -- -- 65
2019-06-07 19:00:00 14.5 19 Nordeste 35 Norte 0 -- -- 62
2019-06-07 18:00:00 15.4 18 Nordeste 32 Nordeste 0 -- -- 60
2019-06-07 17:00:00 16.7 5 Norte 24 Noroeste 0 -- -- 50
2019-06-07 16:00:00 17.8 15 Noroeste 22 Noroeste 0 -- -- 41
2019-06-07 15:00:00 15.8 5 Oeste 35 Sudoeste 0 -- -- 49
2019-06-07 14:00:00 16.5 13 Sudoeste 31 Sudoeste 0 -- -- 45
2019-06-07 13:00:00 15.3 21 Sudoeste 32 Sudoeste 0 -- -- 49
2019-06-07 12:00:00 14.2 16 Sudoeste 31 Oeste 0 -- -- 53
2019-06-07 11:00:00 12.9 17 Sudoeste 37 Oeste 0 -- -- 58
2019-06-07 10:00:00 12.6 14 Sudoeste 33 Sudoeste 0 -- -- 60
2019-06-07 09:00:00 11.2 15 Sudoeste 24 Sudoeste 0 -- -- 66
2019-06-07 08:00:00 8.6 3 Sudeste 10 Nordeste 0 -- -- 90
2019-06-07 07:00:00 8.7 3 Este 33 Sudoeste 1.4 -- -- 88
2019-06-07 06:00:00 9.3 15 Sudoeste 42 Sudoeste 2 -- -- 88
2019-06-07 05:00:00 11.9 19 Sudoeste 67 Sudoeste 4.6 -- -- 82
2019-06-07 04:00:00 16.5 25 Oeste 61 Sudoeste 0 -- -- 57
2019-06-07 03:00:00 16.8 31 Sudoeste 64 Sudoeste 0 -- -- 56
2019-06-07 02:00:00 17.3 31 Sudoeste 72 Sudoeste 0 -- -- 54
2019-06-07 01:00:00 17.5 32 Sudoeste 69 Sudoeste 0 -- -- 53
2019-06-07 00:00:00 17.8 28 Sudoeste 67 Sudoeste 0 -- -- 50
2019-06-06 23:00:00 17.9 34 Sudoeste 69 Sudoeste 0 -- -- 50
2019-06-06 22:00:00 18.5 32 Sudoeste 66 Sudoeste 0 -- -- 49
2019-06-06 21:00:00 19.3 20 Sudoeste 63 Sudoeste 0 -- -- 49
2019-06-06 20:00:00 20.2 39 Sudoeste 65 Sudoeste 0 -- -- 47
2019-06-06 19:00:00 20.8 26 Sudoeste 62 Sudoeste 0 -- -- 41
2019-06-06 18:00:00 20.6 28 Sudoeste 55 Sudoeste 0 -- -- 38
2019-06-06 17:00:00 20.6 26 Sudoeste 72 Sudoeste 0 -- -- 38
2019-06-06 16:00:00 20.6 17 Sudoeste 54 Oeste 0 -- -- 40
2019-06-06 15:00:00 19.8 26 Sudoeste 54 Oeste 0 -- -- 37
2019-06-06 14:00:00 18.7 18 Sudoeste 46 Sur 0 -- -- 45
2019-06-06 13:00:00 18.3 15 Oeste 41 Oeste 0 -- -- 53
2019-06-06 12:00:00 16.2 14 Oeste 37 Oeste 0 -- -- 58
2019-06-06 11:00:00 14.6 3 Sudeste 8 Sur 0 -- -- 66
2019-06-06 10:00:00 10.1 2 Sudeste 5 Sudoeste 0 -- -- 85
2019-06-06 09:00:00 7.7 0 Calma 3 Sur 0 -- -- 95
2019-06-06 08:00:00 6.6 0 Calma 3 Sudeste 0 -- -- 97
2019-06-06 07:00:00 6.1 0 Calma 4 Este 0 -- -- 97
2019-06-06 06:00:00 6.1 0 Calma 2 Este 0 -- -- 97
2019-06-06 05:00:00 6 0 Calma 3 Sudoeste 0 -- -- 97
2019-06-06 04:00:00 6 0 Calma 5 Nordeste 0 -- -- 96
2019-06-06 03:00:00 6.3 0 Calma 6 Nordeste 0 -- -- 95
2019-06-06 02:00:00 6.4 0 Calma 5 Oeste 0 -- -- 94
2019-06-06 01:00:00 6.8 3 Oeste 7 Este 0 -- -- 93
2019-06-06 00:00:00 6.7 3 Noroeste 5 Noroeste 0 -- -- 93
2019-06-05 23:00:00 7.5 0 Calma 20 Este 0 -- -- 89
2019-06-05 22:00:00 9 8 Norte 26 Este 0 -- -- 80
2019-06-05 21:00:00 10.1 10 Nordeste 21 Nordeste 0 -- -- 76
2019-06-05 20:00:00 11.1 12 Nordeste 26 Norte 0 -- -- 76
2019-06-05 19:00:00 11.2 14 Nordeste 24 Nordeste 0 -- -- 78
2019-06-05 18:00:00 11.7 8 Nordeste 19 Nordeste 0 -- -- 81
2019-06-05 17:00:00 12.3 11 Norte 30 Norte 0 -- -- 73
2019-06-05 16:00:00 11.8 2 Nordeste 14 Noroeste 0.2 -- -- 81
2019-06-05 15:00:00 11.2 7 Noroeste 15 Oeste 0.2 -- -- 83
2019-06-05 14:00:00 11.2 8 Nordeste 21 Sudeste 0 -- -- 77
2019-06-05 13:00:00 10.3 9 Este 26 Nordeste 0 -- -- 78
2019-06-05 12:00:00 8.5 11 Nordeste 25 Nordeste 3.6 -- -- 90
2019-06-05 11:00:00 8.2 6 Nordeste 24 Sudeste 4.6 -- -- 90
2019-06-05 10:00:00 8.9 8 Nordeste 19 Nordeste 4.4 -- -- 94
2019-06-05 09:00:00 8.9 10 Este 35 Norte 5.4 -- -- 95
2019-06-05 08:00:00 9.2 8 Este 25 Nordeste 4.6 -- -- 94
2019-06-05 07:00:00 8.9 13 Nordeste 30 Este 5.2 -- -- 95
2019-06-05 06:00:00 9.4 14 Este 31 Sudeste 3 -- -- 93
2019-06-05 05:00:00 10.4 19 Este 35 Sudeste 1.6 -- -- 86
2019-06-05 04:00:00 10.5 9 Nordeste 29 Nordeste 1 -- -- 86
2019-06-05 03:00:00 10.8 11 Nordeste 32 Nordeste 0 -- -- 81
2019-06-05 02:00:00 10.9 10 Nordeste 24 Este 0 -- -- 82
2019-06-05 01:00:00 10.5 9 Nordeste 28 Nordeste 0 -- -- 84
2019-06-05 00:00:00 10.8 12 Este 42 Nordeste 0 -- -- 85
2019-06-04 23:00:00 11.7 21 Nordeste 32 Nordeste 0 -- -- 87
2019-06-04 22:00:00 12.4 17 Nordeste 35 Este 3.6 -- -- 93
2019-06-04 21:00:00 13.4 14 Nordeste 41 Este 0.2 -- -- 85
2019-06-04 20:00:00 14 16 Este 40 Nordeste 0 -- -- 85
2019-06-04 19:00:00 15.1 19 Nordeste 39 Nordeste 1 -- -- 85
2019-06-04 18:00:00 14.9 24 Nordeste 58 Este 3.6 -- -- 95
2019-06-04 17:00:00 20.3 17 Nordeste 44 Nordeste 0.2 -- -- 74
2019-06-04 16:00:00 27.5 14 Sudoeste 51 Oeste 0 -- -- 33
2019-06-04 15:00:00 28.3 32 Oeste 54 Oeste 0 -- -- 30
2019-06-04 14:00:00 28.2 15 Sudoeste 46 Sudoeste 0 -- -- 32
2019-06-04 13:00:00 26.5 18 Oeste 36 Oeste 0 -- -- 34
2019-06-04 12:00:00 24.6 23 Oeste 37 Sudoeste 0 -- -- 40
2019-06-04 11:00:00 22.8 22 Sudoeste 34 Sudoeste 0 -- -- 44
2019-06-04 10:00:00 20.4 3 Sur 8 Oeste 0 -- -- 64
2019-06-04 09:00:00 14.1 2 Este 6 Nordeste 0 -- -- 93
2019-06-04 08:00:00 10.3 0 Calma 5 Este 0 -- -- 99
2019-06-04 07:00:00 9.4 0 Calma 4 Nordeste 0 -- -- 97
2019-06-04 06:00:00 9.8 0 Calma 4 Este 0 -- -- 97
2019-06-04 05:00:00 10.5 2 Este 6 Este 0 -- -- 96
2019-06-04 04:00:00 11.4 2 Este 5 Nordeste 0 -- -- 95
2019-06-04 03:00:00 12.5 0 Calma 6 Este 0 -- -- 94
2019-06-04 02:00:00 13.5 0 Calma 8 Nordeste 0 -- -- 91
2019-06-04 01:00:00 15 3 Este 12 Nordeste 0 -- -- 88
2019-06-04 00:00:00 16.2 2 Este 5 Norte 0 -- -- 84
2019-06-03 23:00:00 17.9 0 Calma 10 Nordeste 0 -- -- 77
2019-06-03 22:00:00 19.8 5 Este 24 Nordeste 0 -- -- 72
2019-06-03 21:00:00 21.8 20 Nordeste 28 Nordeste 0 -- -- 64
2019-06-03 20:00:00 27.1 6 Norte 26 Oeste 0 -- -- 46
2019-06-03 19:00:00 28.9 17 Oeste 25 Oeste 0 -- -- 34
2019-06-03 18:00:00 28.7 11 Oeste 21 Oeste 0 -- -- 35
2019-06-03 17:00:00 27.5 12 Sudoeste 28 Sudoeste 0 -- -- 39
2019-06-03 16:00:00 26.6 17 Oeste 31 Oeste 0 -- -- 38
2019-06-03 15:00:00 26.5 17 Oeste 32 Sudoeste 0 -- -- 44
2019-06-03 14:00:00 25.4 22 Oeste 32 Sudoeste 0 -- -- 46
2019-06-03 13:00:00 24.4 15 Sudoeste 22 Sudoeste 0 -- -- 49
2019-06-03 12:00:00 22.2 15 Sudoeste 23 Oeste 0 -- -- 53
2019-06-03 11:00:00 21.1 0 Calma 6 Sur 0 -- -- 59
2019-06-03 10:00:00 17 3 Este 5 Sur 0 -- -- 73
2019-06-03 09:00:00 14 0 Calma 5 Este 0 -- -- 84
2019-06-03 08:00:00 12.6 0 Calma 8 Nordeste 0 -- -- 87
2019-06-03 07:00:00 12.2 4 Este 9 Este 0 -- -- 88
2019-06-03 06:00:00 12.4 0 Calma 6 Nordeste 0 -- -- 88
2019-06-03 05:00:00 13.1 2 Noroeste 10 Nordeste 0 -- -- 85
2019-06-03 04:00:00 13.7 0 Calma 5 Sudoeste 0 -- -- 84
2019-06-03 03:00:00 14.8 0 Calma 8 Norte 0 -- -- 80
2019-06-03 02:00:00 16.2 0 Calma 18 Nordeste 0 -- -- 76
2019-06-03 01:00:00 17.9 8 Nordeste 24 Nordeste 0 -- -- 66
2019-06-03 00:00:00 19.4 13 Nordeste 25 Nordeste 0 -- -- 65
2019-06-02 23:00:00 20.2 15 Nordeste 28 Nordeste 0 -- -- 66
2019-06-02 22:00:00 21.4 10 Nordeste 22 Nordeste 0 -- -- 67
2019-06-02 21:00:00 23.4 14 Nordeste 22 Nordeste 0 -- -- 65
2019-06-02 20:00:00 25.7 16 Nordeste 22 Nordeste 0 -- -- 59
2019-06-02 19:00:00 29.3 2 Sudoeste 15 Sudoeste 0 -- -- 44
2019-06-02 18:00:00 29.6 11 Oeste 25 Sudoeste 0 -- -- 35
2019-06-02 17:00:00 29.8 12 Sudoeste 26 Sudoeste 0 -- -- 34
2019-06-02 16:00:00 28.9 21 Sudoeste 30 Sudoeste 0 -- -- 35
2019-06-02 15:00:00 28.6 17 Oeste 28 Sudoeste 0 -- -- 39
2019-06-02 14:00:00 27.7 18 Sudoeste 32 Oeste 0 -- -- 38
2019-06-02 13:00:00 27 19 Oeste 30 Sudoeste 0 -- -- 40
2019-06-02 12:00:00 26.7 13 Sudoeste 23 Oeste 0 -- -- 41
2019-06-02 11:00:00 23.6 2 Sur 8 Sur 0 -- -- 56
2019-06-02 10:00:00 19.1 2 Sudeste 7 Sudeste 0 -- -- 72
2019-06-02 09:00:00 14.5 2 Este 8 Este 0 -- -- 83
2019-06-02 08:00:00 9.6 2 Nordeste 8 Este 0 -- -- 98
2019-06-02 07:00:00 8.7 0 Calma 8 Este 0 -- -- 97
2019-06-02 06:00:00 8.9 3 Este 8 Sudeste 0 -- -- 96
2019-06-02 05:00:00 9.3 2 Este 6 Este 0 -- -- 95
2019-06-02 04:00:00 9.9 3 Este 7 Nordeste 0 -- -- 93
2019-06-02 03:00:00 10.5 4 Este 7 Este 0 -- -- 91
2019-06-02 02:00:00 11.3 2 Este 8 Este 0 -- -- 89
2019-06-02 01:00:00 12.1 2 Nordeste 8 Este 0 -- -- 85
2019-06-02 00:00:00 13.3 0 Calma 7 Este 0 -- -- 81
2019-06-01 23:00:00 14.8 3 Este 7 Este 0 -- -- 75
2019-06-01 22:00:00 17.5 3 Este 6 Este 0 -- -- 64
2019-06-01 21:00:00 23.4 2 Sur 6 Oeste 0 -- -- 48
2019-06-01 20:00:00 27.9 0 Calma 13 Sudoeste 0 -- -- 40
2019-06-01 19:00:00 28.7 11 Oeste 18 Sudoeste 0 -- -- 30
2019-06-01 18:00:00 28.8 14 Oeste 23 Sudoeste 0 -- -- 33
2019-06-01 17:00:00 28.2 13 Oeste 31 Sudoeste 0 -- -- 36
2019-06-01 16:00:00 27.7 18 Sudoeste 30 Sudoeste 0 -- -- 35
2019-06-01 15:00:00 26.7 21 Sudoeste 36 Sudoeste 0 -- -- 37
2019-06-01 14:00:00 26.2 24 Oeste 36 Sudoeste 0 -- -- 36
2019-06-01 13:00:00 25.7 18 Oeste 32 Sudoeste 0 -- -- 41
2019-06-01 12:00:00 24.5 19 Oeste 29 Oeste 0 -- -- 48
2019-06-01 11:00:00 21.9 2 Sudeste 8 Sudeste 0 -- -- 64
2019-06-01 10:00:00 17.6 4 Este 7 Sudeste 0 -- -- 73
2019-06-01 09:00:00 12.9 4 Este 10 Este 0 -- -- 87
2019-06-01 08:00:00 9.1 5 Este 9 Nordeste 0 -- -- 99
2019-06-01 07:00:00 8.2 4 Este 9 Este 0 -- -- 97
2019-06-01 06:00:00 8.8 4 Este 8 Este 0 -- -- 96
2019-06-01 05:00:00 9.3 5 Este 9 Este 0 -- -- 96
2019-06-01 04:00:00 10 4 Este 7 Este 0 -- -- 95
2019-06-01 03:00:00 10.8 5 Este 7 Nordeste 0 -- -- 95
2019-06-01 02:00:00 11.5 3 Este 6 Este 0 -- -- 94
2019-06-01 01:00:00 12.3 0 Calma 6 Norte 0 -- -- 91
2019-06-01 00:00:00 13.4 0 Calma 4 Norte 0 -- -- 89
2019-05-31 23:00:00 14.9 0 Calma 5 Nordeste 0 -- -- 85
2019-05-31 22:00:00 17.5 2 Este 22 Nordeste 0 -- -- 76
2019-05-31 21:00:00 20.9 14 Nordeste 25 Nordeste 0 -- -- 62
2019-05-31 20:00:00 23.6 14 Nordeste 27 Nordeste 0 -- -- 53
2019-05-31 19:00:00 24.7 12 Nordeste 25 Nordeste 0 -- -- 51
2019-05-31 18:00:00 25.2 14 Nordeste 26 Este 0 -- -- 54
2019-05-31 17:00:00 25.8 14 Nordeste 21 Nordeste 0 -- -- 52
2019-05-31 16:00:00 26.4 12 Sudoeste 24 Oeste 0 -- -- 45
2019-05-31 15:00:00 25.4 12 Sudoeste 23 Sudoeste 0 -- -- 45
2019-05-31 14:00:00 24.1 17 Sudoeste 25 Sudoeste 0 -- -- 46
2019-05-31 13:00:00 23.6 15 Sudoeste 24 Oeste 0 -- -- 45
2019-05-31 12:00:00 22.1 15 Sudoeste 21 Sudoeste 0 -- -- 46
2019-05-31 11:00:00 20.4 4 Sudeste 9 Este 0 -- -- 57
2019-05-31 10:00:00 16.2 0 Calma 10 Este 0 -- -- 71
2019-05-31 09:00:00 12.3 4 Este 8 Este 0 -- -- 82
2019-05-31 08:00:00 8.5 6 Este 8 Este 0 -- -- 98
2019-05-31 07:00:00 8 0 Calma 4 Oeste 0 -- -- 95
2019-05-31 06:00:00 9.1 0 Calma 14 Nordeste 0 -- -- 92
2019-05-31 05:00:00 10.2 5 Este 12 Norte 0 -- -- 90
2019-05-31 04:00:00 11.1 6 Oeste 13 Sudoeste 0 -- -- 88
2019-05-31 03:00:00 12.1 8 Nordeste 28 Nordeste 0 -- -- 87
2019-05-31 02:00:00 13.7 15 Nordeste 22 Norte 0 -- -- 84
2019-05-31 01:00:00 14.4 13 Este 20 Este 0 -- -- 81
2019-05-31 00:00:00 14.4 5 Nordeste 22 Nordeste 0 -- -- 82
2019-05-30 23:00:00 16 7 Noroeste 37 Nordeste 0 -- -- 76
2019-05-30 22:00:00 17 22 Nordeste 38 Nordeste 0 -- -- 72
2019-05-30 21:00:00 17.8 24 Nordeste 37 Nordeste 0 -- -- 69
2019-05-30 20:00:00 19.3 20 Nordeste 39 Nordeste 0 -- -- 64
2019-05-30 19:00:00 20.2 26 Nordeste 41 Nordeste 0 -- -- 59
2019-05-30 18:00:00 21.4 26 Nordeste 39 Nordeste 0 -- -- 53
2019-05-30 17:00:00 21.6 25 Nordeste 39 Nordeste 0 -- -- 51
2019-05-30 16:00:00 21.6 27 Nordeste 39 Nordeste 0 -- -- 50
2019-05-30 15:00:00 21.5 24 Nordeste 36 Nordeste 0 -- -- 51
2019-05-30 14:00:00 20.8 27 Nordeste 39 Nordeste 0 -- -- 47
2019-05-30 13:00:00 20.1 22 Nordeste 32 Nordeste 0 -- -- 50
2019-05-30 12:00:00 18.9 22 Nordeste 36 Nordeste 0 -- -- 54
2019-05-30 11:00:00 17.2 25 Nordeste 34 Norte 0 -- -- 55
2019-05-30 10:00:00 16.2 11 Nordeste 28 Nordeste 0 -- -- 57
2019-05-30 09:00:00 13.1 0 Calma 9 Este 0 -- -- 75
2019-05-30 08:00:00 6.1 2 Sudeste 9 Nordeste 0 -- -- 99
2019-05-30 07:00:00 5.1 0 Calma 4 Nordeste 0 -- -- 95
2019-05-30 06:00:00 5.7 0 Calma 6 Sudoeste 0 -- -- 93
2019-05-30 05:00:00 6.7 2 Sudoeste 8 Oeste 0 -- -- 90
2019-05-30 04:00:00 8.6 4 Oeste 26 Nordeste 0 -- -- 83
2019-05-30 03:00:00 9.2 14 Norte 23 Norte 0 -- -- 83
2019-05-30 02:00:00 9.6 7 Norte 21 Este 0 -- -- 81
2019-05-30 01:00:00 10 10 Norte 41 Nordeste 0 -- -- 80
2019-05-30 00:00:00 10.4 21 Nordeste 41 Norte 0 -- -- 79
2019-05-29 23:00:00 10.9 19 Nordeste 39 Nordeste 0 -- -- 77
2019-05-29 22:00:00 11.3 16 Nordeste 33 Nordeste 0 -- -- 75
2019-05-29 21:00:00 12 17 Nordeste 39 Norte 0 -- -- 71
2019-05-29 20:00:00 13.2 17 Nordeste 46 Nordeste 0 -- -- 65
2019-05-29 19:00:00 13.2 25 Nordeste 51 Nordeste 0 -- -- 62
2019-05-29 18:00:00 13.9 28 Nordeste 44 Nordeste 0 -- -- 56
2019-05-29 17:00:00 14.9 24 Nordeste 45 Nordeste 0 -- -- 54
2019-05-29 16:00:00 14.4 18 Nordeste 36 Nordeste 0 -- -- 59
2019-05-29 15:00:00 14.4 21 Nordeste 37 Nordeste 0 -- -- 62
2019-05-29 14:00:00 13.7 28 Nordeste 41 Nordeste 0 -- -- 57
2019-05-29 13:00:00 13.5 24 Nordeste 41 Nordeste 0 -- -- 63
2019-05-29 12:00:00 12.9 19 Nordeste 38 Nordeste 0 -- -- 65
2019-05-29 11:00:00 10.3 12 Norte 31 Nordeste 0 -- -- 78
2019-05-29 10:00:00 10.6 7 Este 36 Norte 0 -- -- 72
2019-05-29 09:00:00 10.1 4 Nordeste 15 Norte 0 -- -- 83
2019-05-29 08:00:00 9.1 0 Calma 16 Norte 0 -- -- 88
2019-05-29 07:00:00 8.3 4 Nordeste 12 Sudoeste 0.2 -- -- 92
2019-05-29 06:00:00 7.6 3 Norte 10 Norte 0.2 -- -- 94
2019-05-29 05:00:00 7.6 3 Sudoeste 10 Sudoeste 0 -- -- 91
2019-05-29 04:00:00 8.3 4 Nordeste 23 Norte 0.2 -- -- 85
2019-05-29 03:00:00 8.3 4 Norte 15 Noroeste 0.4 -- -- 87
2019-05-29 02:00:00 8.3 4 Nordeste 22 Norte 0.2 -- -- 87
2019-05-29 01:00:00 8.5 5 Nordeste 22 Nordeste 0.6 -- -- 84
2019-05-29 00:00:00 8.8 13 Nordeste 27 Nordeste 0 -- -- 82
2019-05-28 23:00:00 8.8 8 Nordeste 21 Nordeste 0.2 -- -- 84
2019-05-28 22:00:00 8.7 6 Nordeste 25 Nordeste 0.2 -- -- 85
2019-05-28 21:00:00 9.1 9 Nordeste 36 Norte 0.4 -- -- 84
2019-05-28 20:00:00 9.7 13 Nordeste 28 Nordeste 0 -- -- 80
2019-05-28 19:00:00 10.6 15 Nordeste 31 Nordeste 0 -- -- 74
2019-05-28 18:00:00 10.9 10 Nordeste 37 Nordeste 0 -- -- 75
2019-05-28 17:00:00 11 10 Este 34 Nordeste 0 -- -- 74
2019-05-28 16:00:00 10.3 19 Este 42 Nordeste 0.2 -- -- 78
2019-05-28 15:00:00 10.6 9 Nordeste 37 Norte 0 -- -- 82
2019-05-28 14:00:00 11.6 15 Nordeste 32 Norte 0.2 -- -- 72
2019-05-28 13:00:00 11.4 15 Nordeste 33 Nordeste 0.2 -- -- 75
2019-05-28 12:00:00 10.1 5 Norte 28 Nordeste 0 -- -- 85
2019-05-28 11:00:00 9.8 13 Nordeste 27 Nordeste 0.4 -- -- 81
2019-05-28 10:00:00 9.9 6 Norte 15 Nordeste 0 -- -- 82
2019-05-28 09:00:00 9 8 Nordeste 22 Nordeste 0 -- -- 85
2019-05-28 08:00:00 9.5 8 Nordeste 20 Este 0 -- -- 76
2019-05-28 07:00:00 9.1 10 Nordeste 22 Norte 0 -- -- 82
2019-05-28 06:00:00 9.2 11 Norte 23 Este 0 -- -- 78
2019-05-28 05:00:00 9.5 14 Nordeste 26 Nordeste 0 -- -- 75
2019-05-28 04:00:00 9.4 4 Este 27 Este 0 -- -- 76
2019-05-28 03:00:00 9.3 3 Norte 22 Sudeste 0 -- -- 78
2019-05-28 02:00:00 9.3 9 Nordeste 23 Nordeste 0 -- -- 75
2019-05-28 01:00:00 10.1 13 Nordeste 22 Norte 0 -- -- 74
2019-05-28 00:00:00 10.6 4 Nordeste 19 Nordeste 0 -- -- 80
2019-05-27 23:00:00 10.9 5 Nordeste 18 Nordeste 0 -- -- 80
2019-05-27 22:00:00 11.1 8 Nordeste 29 Este 0 -- -- 79
2019-05-27 21:00:00 12 12 Nordeste 28 Nordeste 0.2 -- -- 80
2019-05-27 20:00:00 13.7 3 Norte 23 Norte 0 -- -- 85
2019-05-27 19:00:00 14.4 12 Nordeste 23 Este 0 -- -- 82
2019-05-27 18:00:00 14.7 15 Nordeste 26 Nordeste 0 -- -- 77
2019-05-27 17:00:00 14.2 17 Nordeste 31 Nordeste 0 -- -- 78
2019-05-27 16:00:00 14.8 16 Nordeste 31 Norte 0 -- -- 74
2019-05-27 15:00:00 14.9 14 Nordeste 30 Nordeste 0 -- -- 74
2019-05-27 14:00:00 14.6 18 Nordeste 34 Nordeste 0 -- -- 75
2019-05-27 13:00:00 15.8 21 Nordeste 35 Este 0 -- -- 70
2019-05-27 12:00:00 13.7 16 Nordeste 26 Nordeste 0 -- -- 74
2019-05-27 11:00:00 13.2 14 Norte 30 Nordeste 0 -- -- 75
2019-05-27 10:00:00 12.4 18 Nordeste 30 Nordeste 0 -- -- 76
2019-05-27 09:00:00 11.5 15 Nordeste 28 Nordeste 0 -- -- 78
2019-05-27 08:00:00 11.2 6 Norte 24 Nordeste 0 -- -- 79
2019-05-27 07:00:00 10.7 13 Nordeste 29 Nordeste 0 -- -- 80
2019-05-27 06:00:00 10.8 6 Nordeste 27 Nordeste 0 -- -- 80
2019-05-27 05:00:00 10.8 16 Nordeste 33 Nordeste 0 -- -- 81
2019-05-27 04:00:00 11 11 Nordeste 28 Norte 0 -- -- 79
2019-05-27 03:00:00 11.1 14 Nordeste 24 Nordeste 0 -- -- 80
2019-05-27 02:00:00 11.2 12 Nordeste 25 Nordeste 0 -- -- 79
2019-05-27 01:00:00 11.2 13 Norte 30 Nordeste 0 -- -- 80
2019-05-27 00:00:00 11.5 12 Nordeste 28 Nordeste 0 -- -- 79
2019-05-26 23:00:00 11.7 10 Nordeste 25 Norte 0 -- -- 78
2019-05-26 22:00:00 11.9 12 Norte 26 Norte 0 -- -- 78
2019-05-26 21:00:00 12.5 9 Norte 28 Norte 0 -- -- 76
2019-05-26 20:00:00 13.2 9 Norte 33 Norte 0 -- -- 75
2019-05-26 19:00:00 14 19 Norte 33 Nordeste 0 -- -- 72
2019-05-26 18:00:00 14.8 15 Nordeste 40 Nordeste 0 -- -- 69
2019-05-26 17:00:00 14.6 18 Nordeste 39 Nordeste 0 -- -- 71
2019-05-26 16:00:00 14.6 22 Nordeste 39 Nordeste 0 -- -- 70
2019-05-26 15:00:00 14.4 20 Norte 47 Nordeste 0 -- -- 72
2019-05-26 14:00:00 13.8 15 Nordeste 43 Nordeste 0 -- -- 74
2019-05-26 13:00:00 14 14 Nordeste 39 Nordeste 0 -- -- 69
2019-05-26 12:00:00 12.9 21 Nordeste 39 Nordeste 0 -- -- 72
2019-05-26 11:00:00 12.1 17 Nordeste 31 Nordeste 0 -- -- 75
2019-05-26 10:00:00 11.3 13 Nordeste 25 Nordeste 0 -- -- 77
2019-05-26 09:00:00 10.3 6 Nordeste 17 Nordeste 0 -- -- 83
2019-05-26 08:00:00 9.3 2 Nordeste 17 Norte 0 -- -- 91
2019-05-26 07:00:00 9.1 10 Norte 33 Nordeste 0 -- -- 89
2019-05-26 06:00:00 9.9 15 Nordeste 26 Nordeste 0 -- -- 79
2019-05-26 05:00:00 9.7 7 Nordeste 26 Norte 0 -- -- 83
2019-05-26 04:00:00 9.9 6 Nordeste 18 Norte 0 -- -- 80
2019-05-26 03:00:00 10 8 Norte 30 Norte 0 -- -- 77
2019-05-26 02:00:00 10 8 Nordeste 26 Norte 0 -- -- 83
2019-05-26 01:00:00 9.9 4 Norte 20 Norte 0 -- -- 85
2019-05-26 00:00:00 10.2 7 Nordeste 31 Nordeste 0 -- -- 81
2019-05-25 23:00:00 10.3 8 Norte 28 Este 0 -- -- 81
2019-05-25 22:00:00 10.5 9 Nordeste 26 Norte 0 -- -- 80
2019-05-25 21:00:00 10.7 11 Nordeste 22 Norte 0 -- -- 83
2019-05-25 20:00:00 10.9 8 Norte 25 Norte 0 -- -- 86
2019-05-25 19:00:00 11.5 17 Norte 33 Norte 0.2 -- -- 84
2019-05-25 18:00:00 12.7 10 Norte 26 Nordeste 0 -- -- 78
2019-05-25 17:00:00 13 10 Norte 32 Nordeste 0 -- -- 78
2019-05-25 16:00:00 14.2 24 Nordeste 44 Nordeste 0 -- -- 70
2019-05-25 15:00:00 13.8 10 Nordeste 41 Nordeste 0 -- -- 75
2019-05-25 14:00:00 12.6 9 Nordeste 31 Norte 0 -- -- 79
2019-05-25 13:00:00 12.7 17 Norte 33 Nordeste 0 -- -- 78
2019-05-25 12:00:00 12.8 10 Nordeste 35 Nordeste 0 -- -- 79
2019-05-25 11:00:00 11.8 17 Nordeste 33 Nordeste 0 -- -- 81
2019-05-25 10:00:00 11.3 15 Nordeste 39 Nordeste 0 -- -- 82
2019-05-25 09:00:00 10.7 16 Nordeste 35 Nordeste 0 -- -- 84
2019-05-25 08:00:00 10.7 20 Nordeste 43 Nordeste 0 -- -- 81
2019-05-25 07:00:00 10.6 23 Nordeste 37 Nordeste 0 -- -- 82
2019-05-25 06:00:00 10.6 23 Nordeste 37 Nordeste 0 -- -- 81
2019-05-25 05:00:00 10.2 6 Nordeste 40 Norte 0 -- -- 85
2019-05-25 04:00:00 10.8 9 Nordeste 22 Nordeste 0 -- -- 82
2019-05-25 03:00:00 10.5 3 Norte 39 Nordeste 0 -- -- 85
2019-05-25 02:00:00 10.5 20 Norte 33 Norte 0 -- -- 82
2019-05-25 01:00:00 10.8 8 Nordeste 37 Norte 0 -- -- 82
2019-05-25 00:00:00 11 12 Nordeste 32 Norte 0 -- -- 83
2019-05-24 23:00:00 10.5 11 Nordeste 37 Nordeste 0 -- -- 88
2019-05-24 22:00:00 11 18 Nordeste 41 Nordeste 0 -- -- 85
2019-05-24 21:00:00 11.3 9 Nordeste 27 Nordeste 0 -- -- 87
2019-05-24 20:00:00 10.9 10 Norte 28 Norte 0 -- -- 87
2019-05-24 19:00:00 10.9 13 Nordeste 27 Este 0 -- -- 88
2019-05-24 18:00:00 11.1 14 Nordeste 28 Nordeste 0 -- -- 87
2019-05-24 17:00:00 11.6 9 Nordeste 27 Nordeste 0 -- -- 83
2019-05-24 16:00:00 11.5 10 Nordeste 30 Nordeste 0 -- -- 86
2019-05-24 15:00:00 11.2 10 Nordeste 24 Nordeste 0 -- -- 87
2019-05-24 14:00:00 12.2 11 Nordeste 22 Nordeste 0 -- -- 78
2019-05-24 13:00:00 11.7 15 Nordeste 30 Nordeste 0 -- -- 81
2019-05-24 12:00:00 13 11 Este 31 Nordeste 0 -- -- 78
2019-05-24 11:00:00 11.4 17 Nordeste 30 Nordeste 0 -- -- 81
2019-05-24 10:00:00 10.7 12 Nordeste 27 Nordeste 0 -- -- 85
2019-05-24 09:00:00 10.6 6 Nordeste 17 Nordeste 0 -- -- 90
2019-05-24 08:00:00 10.7 3 Nordeste 15 Nordeste 0.2 -- -- 91
2019-05-24 07:00:00 10.5 0 Calma 6 Noroeste 1 -- -- 96
2019-05-24 06:00:00 10.5 2 Norte 9 Este 1.4 -- -- 95
2019-05-24 05:00:00 10.6 3 Nordeste 7 Este 1.2 -- -- 94
2019-05-24 04:00:00 10.6 3 Nordeste 19 Norte 1.8 -- -- 93
2019-05-24 03:00:00 10.4 5 Nordeste 16 Este 3 -- -- 92
2019-05-24 02:00:00 10.8 6 Este 23 Este 3 -- -- 89
2019-05-24 01:00:00 11.7 12 Nordeste 28 Nordeste 0 -- -- 83
2019-05-24 00:00:00 11.8 8 Nordeste 26 Nordeste 0 -- -- 80
2019-05-23 23:00:00 12.1 17 Nordeste 29 Nordeste 0 -- -- 78
2019-05-23 22:00:00 12.9 22 Nordeste 34 Nordeste 0 -- -- 74
2019-05-23 21:00:00 14.7 16 Nordeste 28 Nordeste 0 -- -- 79
2019-05-23 20:00:00 16.2 14 Nordeste 26 Nordeste 0 -- -- 84
2019-05-23 19:00:00 15.3 15 Nordeste 32 Este 0.6 -- -- 84
2019-05-23 18:00:00 18.5 9 Nordeste 31 Nordeste 0 -- -- 71
2019-05-23 17:00:00 21 18 Nordeste 28 Nordeste 0 -- -- 60
2019-05-23 16:00:00 24.7 4 Sudoeste 18 Sudoeste 0 -- -- 36
2019-05-23 15:00:00 23.8 10 Sudoeste 17 Oeste 0 -- -- 37
2019-05-23 14:00:00 23.3 10 Sudoeste 16 Sudoeste 0 -- -- 42
2019-05-23 13:00:00 22.5 8 Sudoeste 15 Sudoeste 0 -- -- 43
2019-05-23 12:00:00 20.4 2 Oeste 7 Sudeste 0 -- -- 53
2019-05-23 11:00:00 16.4 3 Sudeste 6 Sur 0 -- -- 66
2019-05-23 10:00:00 12.6 2 Este 7 Este 0 -- -- 76
2019-05-23 09:00:00 9 3 Este 6 Este 0 -- -- 87
2019-05-23 08:00:00 6.3 4 Este 6 Este 0 -- -- 97
2019-05-23 07:00:00 5.4 3 Este 6 Nordeste 0 -- -- 96
2019-05-23 06:00:00 5.7 3 Nordeste 8 Norte 0 -- -- 96
2019-05-23 05:00:00 6.1 3 Este 6 Este 0 -- -- 95
2019-05-23 04:00:00 6.7 2 Este 6 Este 0 -- -- 95
2019-05-23 03:00:00 7.2 0 Calma 4 Este 0 -- -- 95
2019-05-23 02:00:00 7.9 0 Calma 4 Norte 0 -- -- 95
2019-05-23 01:00:00 8.5 2 Nordeste 6 Norte 0 -- -- 94
2019-05-23 00:00:00 9.6 3 Norte 5 Noroeste 0 -- -- 90
2019-05-22 23:00:00 11.7 0 Calma 8 Nordeste 0 -- -- 86
2019-05-22 22:00:00 14 0 Calma 14 Nordeste 0 -- -- 79
2019-05-22 21:00:00 16.3 12 Nordeste 21 Nordeste 0 -- -- 68
2019-05-22 20:00:00 18.8 15 Nordeste 23 Nordeste 0 -- -- 59
2019-05-22 19:00:00 19.9 17 Nordeste 25 Nordeste 0 -- -- 57
2019-05-22 18:00:00 19.3 9 Este 23 Nordeste 0 -- -- 61
2019-05-22 17:00:00 19.8 18 Nordeste 25 Nordeste 0 -- -- 58
2019-05-22 16:00:00 20.7 14 Nordeste 25 Nordeste 0 -- -- 55
2019-05-22 15:00:00 20.9 9 Sudoeste 22 Sudoeste 0 -- -- 48
2019-05-22 14:00:00 22.2 9 Oeste 18 Noroeste 0 -- -- 45
2019-05-22 13:00:00 21.2 6 Sudoeste 17 Oeste 0 -- -- 46
2019-05-22 12:00:00 19.8 3 Oeste 12 Sudoeste 0 -- -- 49
2019-05-22 11:00:00 17.1 6 Sur 17 Nordeste 0 -- -- 62
2019-05-22 10:00:00 15.2 11 Nordeste 22 Nordeste 0 -- -- 66
2019-05-22 09:00:00 13.6 9 Este 17 Nordeste 0 -- -- 73
2019-05-22 08:00:00 10 6 Este 15 Este 0 -- -- 87
2019-05-22 07:00:00 10.5 6 Este 19 Nordeste 0 -- -- 84
2019-05-22 06:00:00 10.9 10 Nordeste 24 Nordeste 0 -- -- 82
2019-05-22 05:00:00 11 10 Nordeste 22 Este 0 -- -- 82
2019-05-22 04:00:00 11 9 Este 23 Este 0 -- -- 81
2019-05-22 03:00:00 10.7 10 Nordeste 28 Este 0 -- -- 83
2019-05-22 02:00:00 10.9 14 Nordeste 43 Nordeste 0 -- -- 81
2019-05-22 01:00:00 11.4 10 Este 32 Nordeste 0 -- -- 80
2019-05-22 00:00:00 11.6 16 Nordeste 42 Nordeste 0 -- -- 78
2019-05-21 23:00:00 12.1 18 Nordeste 43 Nordeste 0 -- -- 76
2019-05-21 22:00:00 12.3 19 Nordeste 40 Nordeste 0 -- -- 74
2019-05-21 21:00:00 13 20 Nordeste 41 Nordeste 0 -- -- 68
2019-05-21 20:00:00 14.3 21 Nordeste 39 Nordeste 0 -- -- 65
2019-05-21 19:00:00 15 19 Nordeste 45 Norte 0 -- -- 62
2019-05-21 18:00:00 15.2 26 Nordeste 45 Nordeste 0 -- -- 59
2019-05-21 17:00:00 15.6 24 Nordeste 45 Nordeste 0 -- -- 59
2019-05-21 16:00:00 15.4 26 Nordeste 45 Nordeste 0 -- -- 61
2019-05-21 15:00:00 15.7 22 Nordeste 41 Nordeste 0 -- -- 61
2019-05-21 14:00:00 15.5 27 Nordeste 40 Nordeste 0 -- -- 62
2019-05-21 13:00:00 15.4 23 Nordeste 30 Nordeste 0 -- -- 62
2019-05-21 12:00:00 15.3 18 Nordeste 29 Nordeste 0 -- -- 65
2019-05-21 11:00:00 14.2 13 Nordeste 26 Nordeste 0 -- -- 66
2019-05-21 10:00:00 12.5 14 Nordeste 25 Nordeste 0 -- -- 70
2019-05-21 09:00:00 11.1 10 Nordeste 33 Nordeste 0 -- -- 76
2019-05-21 08:00:00 9.3 10 Este 31 Este 0 -- -- 81
2019-05-21 07:00:00 9 9 Este 23 Nordeste 0 -- -- 83
2019-05-21 06:00:00 9 8 Este 23 Sudeste 0 -- -- 83
2019-05-21 05:00:00 8.9 4 Este 14 Nordeste 0 -- -- 83
2019-05-21 04:00:00 8.5 6 Este 18 Nordeste 0 -- -- 85
2019-05-21 03:00:00 9.4 4 Nordeste 29 Sudeste 0 -- -- 81
2019-05-21 02:00:00 10 4 Nordeste 26 Norte 0 -- -- 79
2019-05-21 01:00:00 10 6 Este 31 Nordeste 0 -- -- 79
2019-05-21 00:00:00 10.1 14 Nordeste 28 Este 0 -- -- 79
2019-05-20 23:00:00 10.2 13 Este 29 Nordeste 0 -- -- 78
2019-05-20 22:00:00 10.5 13 Nordeste 31 Nordeste 0 -- -- 79
2019-05-20 21:00:00 11.3 14 Nordeste 37 Nordeste 0 -- -- 73
2019-05-20 20:00:00 12.6 18 Nordeste 33 Nordeste 0 -- -- 67
2019-05-20 19:00:00 13.8 16 Nordeste 27 Nordeste 0 -- -- 62
2019-05-20 18:00:00 13.2 14 Nordeste 28 Nordeste 0 -- -- 65
2019-05-20 17:00:00 14.7 13 Nordeste 25 Nordeste 0 -- -- 57
2019-05-20 16:00:00 13.8 13 Nordeste 25 Nordeste 0 -- -- 63
2019-05-20 15:00:00 13.9 10 Norte 27 Norte 0 -- -- 62
2019-05-20 14:00:00 12.3 13 Nordeste 27 Nordeste 0 -- -- 72
2019-05-20 13:00:00 11.5 16 Nordeste 28 Nordeste 0 -- -- 72
2019-05-20 12:00:00 11.7 13 Nordeste 25 Nordeste 0 -- -- 72
2019-05-20 11:00:00 9.9 9 Nordeste 18 Nordeste 0 -- -- 81
2019-05-20 10:00:00 9.5 10 Norte 20 Norte 0 -- -- 80
2019-05-20 09:00:00 8.6 12 Nordeste 19 Nordeste 0 -- -- 82
2019-05-20 08:00:00 6.7 4 Este 9 Este 0 -- -- 95
2019-05-20 07:00:00 6.3 0 Calma 9 Nordeste 0 -- -- 94
2019-05-20 06:00:00 7.1 6 Nordeste 13 Este 0 -- -- 88
2019-05-20 05:00:00 6.7 5 Nordeste 10 Nordeste 0 -- -- 91
2019-05-20 04:00:00 6.6 6 Nordeste 11 Nordeste 0 -- -- 91
2019-05-20 03:00:00 6.7 5 Nordeste 18 Nordeste 0 -- -- 90
2019-05-20 02:00:00 6.5 7 Nordeste 18 Nordeste 0 -- -- 88
2019-05-20 01:00:00 7.9 5 Nordeste 19 Este 0 -- -- 86
2019-05-20 00:00:00 7.8 5 Nordeste 13 Este 0.2 -- -- 91
2019-05-19 23:00:00 8.1 8 Nordeste 13 Nordeste 0.4 -- -- 93
2019-05-19 22:00:00 8 4 Nordeste 12 Este 0.2 -- -- 90
2019-05-19 21:00:00 8.3 9 Nordeste 23 Nordeste 0.2 -- -- 89
2019-05-19 20:00:00 8.9 5 Este 11 Este 0 -- -- 88
2019-05-19 19:00:00 9.3 4 Nordeste 12 Este 0.6 -- -- 90
2019-05-19 18:00:00 9.5 8 Nordeste 24 Norte 0 -- -- 85
2019-05-19 17:00:00 10.5 4 Este 22 Oeste 0.2 -- -- 85
2019-05-19 16:00:00 10 5 Nordeste 24 Nordeste 0.4 -- -- 86
2019-05-19 15:00:00 9.5 12 Nordeste 22 Este 0.4 -- -- 86
2019-05-19 14:00:00 8.8 3 Nordeste 26 Nordeste 1.2 -- -- 87
2019-05-19 13:00:00 8.9 4 Nordeste 9 Nordeste 1.4 -- -- 92
2019-05-19 12:00:00 8.5 0 Calma 10 Sur 0.2 -- -- 93
2019-05-19 11:00:00 7.9 4 Este 9 Sudoeste 0.2 -- -- 95
2019-05-19 10:00:00 6.4 3 Sur 6 Oeste 1.8 -- -- 98
2019-05-19 09:00:00 5.1 0 Calma 8 Nordeste 1 -- -- 97
2019-05-19 08:00:00 4.5 3 Este 12 Nordeste 1 -- -- 97
2019-05-19 07:00:00 4.4 3 Nordeste 12 Nordeste 0.4 -- -- 97
2019-05-19 06:00:00 4.8 0 Calma 14 Nordeste 3.4 -- -- 97
2019-05-19 05:00:00 4.8 0 Calma 4 Sudeste 2.6 -- -- 97
2019-05-19 04:00:00 4.8 2 Norte 5 Noroeste 3.4 -- -- 97
2019-05-19 03:00:00 4.9 2 Nordeste 6 Sudeste 3.6 -- -- 96
2019-05-19 02:00:00 5 2 Nordeste 4 Norte 3.4 -- -- 95
2019-05-19 01:00:00 5.2 3 Noroeste 8 Sudeste 2.6 -- -- 94
2019-05-19 00:00:00 5.5 6 Sudoeste 10 Sudoeste 2.6 -- -- 94
2019-05-18 23:00:00 5.7 0 Calma 6 Sudeste 2.4 -- -- 93
2019-05-18 22:00:00 6.3 2 Sudeste 12 Sudoeste 1.8 -- -- 91
2019-05-18 21:00:00 6.9 4 Sudoeste 14 Oeste 0.2 -- -- 88
2019-05-18 20:00:00 7.8 4 Sur 15 Oeste 0.8 -- -- 87
2019-05-18 19:00:00 8.6 6 Noroeste 18 Noroeste 0.2 -- -- 82
2019-05-18 18:00:00 9.3 11 Noroeste 29 Noroeste 0 -- -- 77
2019-05-18 17:00:00 10.5 10 Noroeste 26 Noroeste 0 -- -- 74
2019-05-18 16:00:00 9.2 13 Noroeste 28 Noroeste 0 -- -- 80
2019-05-18 15:00:00 9.4 17 Noroeste 28 Noroeste 0 -- -- 76
2019-05-18 14:00:00 9 3 Sudeste 20 Noroeste 0 -- -- 80
2019-05-18 13:00:00 8.5 10 Oeste 18 Oeste 0 -- -- 80
2019-05-18 12:00:00 7.9 4 Sudeste 16 Oeste 0.2 -- -- 84
2019-05-18 11:00:00 7.3 3 Sudeste 15 Sudoeste 0 -- -- 88
2019-05-18 10:00:00 6.9 7 Oeste 16 Oeste 0 -- -- 86
2019-05-18 09:00:00 6.4 2 Este 7 Oeste 0 -- -- 95
2019-05-18 08:00:00 4.8 3 Nordeste 4 Nordeste 0 -- -- 96
2019-05-18 07:00:00 5 2 Este 7 Este 0 -- -- 95
2019-05-18 06:00:00 5.6 3 Noroeste 6 Oeste 0 -- -- 93
2019-05-18 05:00:00 6.2 3 Sudeste 7 Sudeste 0 -- -- 94
2019-05-18 04:00:00 6.6 0 Calma 9 Este 0 -- -- 94
2019-05-18 03:00:00 6.6 3 Nordeste 9 Nordeste 0 -- -- 95
2019-05-18 02:00:00 6.8 2 Sudeste 6 Sudeste 0.2 -- -- 97
2019-05-18 01:00:00 6.7 3 Sudeste 6 Noroeste 0 -- -- 96
2019-05-18 00:00:00 6.7 2 Este 7 Este 0 -- -- 95
2019-05-17 23:00:00 7 0 Calma 8 Este 0.4 -- -- 94
2019-05-17 22:00:00 7.1 4 Este 17 Nordeste 0.4 -- -- 93
2019-05-17 21:00:00 7.7 9 Nordeste 19 Norte 0.6 -- -- 86
2019-05-17 20:00:00 8.3 4 Nordeste 28 Nordeste 0.4 -- -- 85
2019-05-17 19:00:00 8.8 10 Nordeste 30 Norte 0.6 -- -- 83
2019-05-17 18:00:00 8.7 15 Nordeste 27 Nordeste 1.2 -- -- 87
2019-05-17 17:00:00 9.5 7 Norte 19 Nordeste 0.4 -- -- 83
2019-05-17 16:00:00 9.9 4 Nordeste 28 Nordeste 0.2 -- -- 84
2019-05-17 15:00:00 9.3 9 Norte 23 Nordeste 0 -- -- 84
2019-05-17 14:00:00 9.2 8 Nordeste 27 Este 1.6 -- -- 87
2019-05-17 13:00:00 9.2 12 Nordeste 26 Nordeste 1.4 -- -- 88
2019-05-17 12:00:00 8.9 6 Nordeste 29 Nordeste 0.8 -- -- 89
2019-05-17 11:00:00 9.7 7 Nordeste 13 Nordeste 0.6 -- -- 91
2019-05-17 10:00:00 8.6 2 Nordeste 6 Este 0.6 -- -- 97
2019-05-17 09:00:00 7.4 0 Calma 4 Sur 2.4 -- -- 96
2019-05-17 08:00:00 7.1 2 Sudoeste 6 Nordeste 4 -- -- 95
2019-05-17 07:00:00 7.2 3 Este 10 Sudoeste 3.4 -- -- 92
2019-05-17 06:00:00 7.8 3 Este 12 Este 2 -- -- 90
2019-05-17 05:00:00 8.1 4 Sudoeste 9 Sur 1.8 -- -- 93
2019-05-17 04:00:00 8.5 3 Sur 9 Sur 3 -- -- 94
2019-05-17 03:00:00 9 5 Sudeste 29 Noroeste 5.2 -- -- 89
2019-05-17 02:00:00 9.7 12 Nordeste 30 Sudeste 3 -- -- 92
2019-05-17 01:00:00 10.4 10 Nordeste 24 Nordeste 1.6 -- -- 89
2019-05-17 00:00:00 10.8 13 Sudeste 32 Este 1.4 -- -- 88